Time;durP1;ratioP1;P1;durP2;ratioP2;P2;SDS_P1;SDS_P2;PMS_P1;PMS_P2;Temp;Humidity;BMP_temperature;BMP_pressure;BME280_temperature;BME280_humidity;BME280_pressure;Samples;Min_cycle;Max_cycle;Signal;HPM_P1;HPM_P2
2023/08/22 00:02:21;;;;;;;12.52;7.57;;;;;;;-145.69;nan;51818.63;5113793;28;20674;-83
2023/08/22 00:04:47;;;;;;;10.23;6.78;;;;;;;-145.69;nan;51822.59;5113970;28;20201;-82
2023/08/22 00:07:15;;;;;;;14.05;7.13;;;;;;;-145.69;nan;51816.66;5114469;28;20193;-83
2023/08/22 00:09:41;;;;;;;14.52;6.80;;;;;;;-145.69;nan;51802.78;5114047;28;20186;-83
2023/08/22 00:12:08;;;;;;;9.40;6.78;;;;;;;-145.69;nan;51828.53;5114032;28;20278;-83
2023/08/22 00:14:35;;;;;;;11.63;6.63;;;;;;;-145.69;nan;51846.34;5114013;28;20237;-83
2023/08/22 00:17:01;;;;;;;15.73;7.20;;;;;;;-145.69;nan;51794.88;5114262;28;20204;-83
2023/08/22 00:19:28;;;;;;;10.05;6.97;;;;;;;-145.69;nan;51840.41;5114370;28;20201;-83
2023/08/22 00:21:54;;;;;;;10.38;6.50;;;;;;;-145.69;nan;51790.91;5113817;28;20198;-83
2023/08/22 00:24:22;;;;;;;9.65;6.13;;;;;;;-145.69;nan;51834.47;5114237;28;20197;-83
2023/08/22 00:26:48;;;;;;;11.50;6.82;;;;;;;-145.69;nan;51830.50;5113585;28;20655;-83
2023/08/22 00:29:15;;;;;;;12.75;6.65;;;;;;;-145.69;nan;51830.50;5115755;27;20204;-83
2023/08/22 00:31:41;;;;;;;10.35;6.55;;;;;;;-145.69;nan;51814.66;5113880;28;20232;-84
2023/08/22 00:34:07;;;;;;;9.95;6.88;;;;;;;-145.69;nan;51818.63;5113684;28;20194;-83
2023/08/22 00:36:34;;;;;;;11.95;7.25;;;;;;;-145.69;nan;51842.38;5113963;28;20208;-83
2023/08/22 00:39:00;;;;;;;18.63;7.22;;;;;;;-145.69;nan;51842.38;5113626;28;20212;-83
2023/08/22 00:41:28;;;;;;;12.15;6.63;;;;;;;-145.69;nan;51850.31;5113995;28;20205;-83
2023/08/22 00:43:55;;;;;;;11.13;7.20;;;;;;;-145.69;nan;51794.88;5114077;28;20201;-82
2023/08/22 00:46:23;;;;;;;14.43;7.60;;;;;;;-145.69;nan;51846.34;5101937;28;20201;-83
2023/08/22 00:48:50;;;;;;;14.43;7.07;;;;;;;-145.69;nan;51834.47;5093365;28;20210;-83
2023/08/22 00:51:18;;;;;;;10.93;7.05;;;;;;;-145.69;nan;51840.41;5093607;28;20225;-83
2023/08/22 00:53:45;;;;;;;11.88;7.25;;;;;;;-145.69;nan;51812.69;5100427;28;20193;-83
2023/08/22 00:56:12;;;;;;;11.02;7.28;;;;;;;-145.69;nan;51834.47;5113530;28;20200;-83
2023/08/22 00:58:40;;;;;;;12.82;7.15;;;;;;;-145.69;nan;51824.56;5113227;28;20193;-83
2023/08/22 01:01:08;;;;;;;11.75;7.07;;;;;;;-145.69;nan;51834.47;5113573;28;20193;-83
2023/08/22 01:03:35;;;;;;;12.02;7.00;;;;;;;-145.69;nan;51830.50;5113097;28;20683;-83
2023/08/22 01:06:09;;;;;;;13.52;6.85;;;;;;;-145.69;nan;51818.63;5113074;28;20219;-83
2023/08/22 01:08:39;;;;;;;13.10;7.60;;;;;;;-145.69;nan;51822.59;5113140;28;20192;-83
2023/08/22 01:11:12;;;;;;;9.88;6.78;;;;;;;-145.69;nan;51832.50;5113379;28;20312;-83
2023/08/22 01:13:42;;;;;;;10.35;7.03;;;;;;;-145.69;nan;51826.56;5113084;28;20221;-83
2023/08/22 01:16:09;;;;;;;8.57;6.20;;;;;;;-145.69;nan;51830.50;5113401;28;20197;-82
2023/08/22 01:18:36;;;;;;;13.60;6.35;;;;;;;-145.69;nan;51834.47;5113209;28;20556;-83
2023/08/22 01:21:05;;;;;;;12.45;6.85;;;;;;;-145.69;nan;51854.28;5095104;28;20563;-82
2023/08/22 01:23:33;;;;;;;11.45;7.18;;;;;;;-145.69;nan;51814.66;5113449;28;20201;-82
2023/08/22 01:26:01;;;;;;;10.50;7.25;;;;;;;-145.69;nan;51824.56;5112994;28;20212;-83
2023/08/22 01:28:32;;;;;;;12.68;7.35;;;;;;;-145.69;nan;51840.41;5113210;28;20194;-83
2023/08/22 01:31:08;;;;;;;15.75;7.45;;;;;;;-145.69;nan;51882.00;5113068;28;20642;-82
2023/08/22 01:33:37;;;;;;;15.35;7.30;;;;;;;-145.69;nan;51870.13;5113447;28;20209;-83
2023/08/22 01:36:06;;;;;;;11.18;7.22;;;;;;;-145.69;nan;51848.34;5113198;28;20208;-82
2023/08/22 01:38:35;;;;;;;9.82;7.13;;;;;;;-145.69;nan;51862.19;5111338;28;20692;-82
2023/08/22 01:41:03;;;;;;;14.20;8.02;;;;;;;-145.69;nan;51848.34;5110888;28;20204;-83
2023/08/22 01:43:29;;;;;;;14.88;7.53;;;;;;;-145.69;nan;51866.16;5113164;28;20201;-82
2023/08/22 01:45:56;;;;;;;13.95;8.10;;;;;;;-145.69;nan;51862.19;5112971;28;20205;-83
2023/08/22 01:48:22;;;;;;;10.65;7.78;;;;;;;-145.69;nan;51878.03;5112977;28;20208;-82
2023/08/22 01:50:49;;;;;;;13.10;7.03;;;;;;;-145.69;nan;51862.19;5113062;28;20201;-82
2023/08/22 01:53:15;;;;;;;12.80;6.68;;;;;;;-145.69;nan;51882.00;5112930;28;20221;-82
2023/08/22 01:55:43;;;;;;;13.38;7.53;;;;;;;-145.69;nan;51868.13;5106861;28;20193;-82
2023/08/22 01:58:11;;;;;;;12.10;7.53;;;;;;;-145.69;nan;51887.94;5112912;28;20194;-82
2023/08/22 02:00:37;;;;;;;12.10;8.15;;;;;;;-145.69;nan;51866.16;5112836;28;20567;-82
2023/08/22 02:03:04;;;;;;;10.88;7.05;;;;;;;-145.69;nan;51882.00;5112600;28;20194;-83
2023/08/22 02:05:31;;;;;;;11.70;7.20;;;;;;;-145.69;nan;51889.91;5112045;28;20194;-83
2023/08/22 02:07:58;;;;;;;14.23;7.95;;;;;;;-145.69;nan;51866.16;5112364;28;20198;-82
2023/08/22 02:10:25;;;;;;;13.52;7.57;;;;;;;-145.69;nan;51897.84;5112712;28;20198;-83
2023/08/22 02:12:52;;;;;;;11.70;7.88;;;;;;;-145.69;nan;51883.97;5112798;28;20225;-84
2023/08/22 02:15:20;;;;;;;11.95;8.40;;;;;;;-145.69;nan;51874.06;5112425;28;20241;-82
2023/08/22 02:17:47;;;;;;;11.40;7.93;;;;;;;-145.69;nan;51889.91;5112884;28;20288;-83
2023/08/22 02:20:13;;;;;;;11.52;8.02;;;;;;;-145.69;nan;51874.06;5112775;28;20204;-83
2023/08/22 02:22:40;;;;;;;15.20;7.82;;;;;;;-145.69;nan;51878.03;5112777;28;20201;-83
2023/08/22 02:25:08;;;;;;;12.63;7.53;;;;;;;-145.69;nan;51846.34;5115162;27;20193;-83
2023/08/22 02:27:34;;;;;;;10.90;7.38;;;;;;;-145.69;nan;51889.91;5126712;27;20293;-83
2023/08/22 02:30:04;;;;;;;12.43;8.13;;;;;;;-145.69;nan;51862.19;5136938;27;20212;-83
2023/08/22 02:32:30;;;;;;;15.68;8.82;;;;;;;-145.69;nan;51891.88;5133721;27;20698;-83
2023/08/22 02:34:57;;;;;;;11.23;7.60;;;;;;;-145.69;nan;51893.88;5116344;28;20197;-83
2023/08/22 02:37:23;;;;;;;11.18;7.85;;;;;;;-145.69;nan;51891.88;5115965;28;20212;-83
2023/08/22 02:39:50;;;;;;;13.43;8.20;;;;;;;-145.69;nan;51878.03;5116281;28;20198;-84
2023/08/22 02:42:17;;;;;;;14.60;8.18;;;;;;;-145.69;nan;51893.88;5116202;28;20197;-83
2023/08/22 02:44:43;;;;;;;12.25;7.85;;;;;;;-145.69;nan;51876.06;5116220;28;20198;-83
2023/08/22 02:47:11;;;;;;;12.70;7.82;;;;;;;-145.69;nan;51864.16;5116068;28;20202;-83
2023/08/22 02:49:37;;;;;;;11.55;7.97;;;;;;;-145.69;nan;51897.84;5115754;28;20247;-83
2023/08/22 02:52:04;;;;;;;12.75;8.18;;;;;;;-145.69;nan;51852.28;5115628;28;20232;-83
2023/08/22 02:54:31;;;;;;;14.50;8.38;;;;;;;-145.69;nan;51878.03;5115877;28;20686;-82
2023/08/22 02:56:57;;;;;;;10.45;8.15;;;;;;;-145.69;nan;51878.03;5114408;28;20193;-82
2023/08/22 02:59:24;;;;;;;17.40;8.45;;;;;;;-145.69;nan;51882.00;5115715;28;20212;-82
2023/08/22 03:01:50;;;;;;;13.93;8.15;;;;;;;-145.69;nan;51887.94;5115552;28;20552;-82
2023/08/22 03:04:18;;;;;;;11.60;8.48;;;;;;;-145.69;nan;51909.72;5115684;28;20667;-83
2023/08/22 03:06:44;;;;;;;16.88;8.57;;;;;;;-145.69;nan;51870.13;5115713;28;20563;-83
2023/08/22 03:09:11;;;;;;;10.13;7.97;;;;;;;-145.69;nan;51882.00;5115898;28;20193;-82
2023/08/22 03:11:37;;;;;;;13.10;7.88;;;;;;;-145.69;nan;51887.94;5115423;28;20193;-82
2023/08/22 03:14:04;;;;;;;13.95;8.13;;;;;;;-145.69;nan;51876.06;5115069;28;20230;-82
2023/08/22 03:16:31;;;;;;;17.10;7.80;;;;;;;-145.69;nan;51862.19;5115146;28;20284;-82
2023/08/22 03:18:58;;;;;;;15.50;8.77;;;;;;;-145.69;nan;51909.72;5115285;28;20203;-82
2023/08/22 03:21:26;;;;;;;17.02;8.07;;;;;;;-145.69;nan;51887.94;5115251;28;20212;-82
2023/08/22 03:23:52;;;;;;;16.05;8.75;;;;;;;-145.69;nan;51882.00;5115179;28;20202;-82
2023/08/22 03:26:19;;;;;;;10.70;7.95;;;;;;;-145.69;nan;51866.16;5114874;28;20660;-82
2023/08/22 03:28:45;;;;;;;16.15;8.27;;;;;;;-145.69;nan;51876.06;5115066;28;20216;-83
2023/08/22 03:31:12;;;;;;;13.40;7.60;;;;;;;-145.69;nan;51905.75;5115283;28;20201;-83
2023/08/22 03:33:38;;;;;;;10.73;7.95;;;;;;;-145.69;nan;51901.78;5114672;28;20231;-82
2023/08/22 03:36:05;;;;;;;11.77;7.15;;;;;;;-145.69;nan;51885.94;5113552;28;20213;-82
2023/08/22 03:38:33;;;;;;;15.25;7.50;;;;;;;-145.69;nan;51850.31;5114927;28;20193;-83
2023/08/22 03:41:00;;;;;;;12.38;8.48;;;;;;;-145.69;nan;51905.75;5114754;28;20243;-82
2023/08/22 03:43:26;;;;;;;17.23;7.93;;;;;;;-145.69;nan;51883.97;5115021;28;20247;-82
2023/08/22 03:45:53;;;;;;;12.07;7.65;;;;;;;-145.69;nan;51893.88;5114953;28;20205;-82
2023/08/22 03:48:19;;;;;;;18.45;8.13;;;;;;;-145.69;nan;51878.03;5114507;28;20194;-83
2023/08/22 03:50:46;;;;;;;15.68;7.68;;;;;;;-145.69;nan;51893.88;5114724;28;20210;-82
2023/08/22 03:53:12;;;;;;;15.25;8.35;;;;;;;-145.69;nan;51885.94;5112657;28;20221;-82
2023/08/22 03:55:40;;;;;;;13.20;8.93;;;;;;;-145.69;nan;51891.88;5114362;28;20189;-83
2023/08/22 03:58:07;;;;;;;11.70;8.05;;;;;;;-145.69;nan;51899.81;5114517;28;20671;-82
2023/08/22 04:00:34;;;;;;;13.60;7.90;;;;;;;-145.69;nan;51885.94;5114588;28;20233;-82
2023/08/22 04:03:00;;;;;;;14.52;8.60;;;;;;;-145.69;nan;51905.75;5114216;28;20205;-82
2023/08/22 04:05:27;;;;;;;12.70;8.38;;;;;;;-145.69;nan;51905.75;5113914;28;20205;-83
2023/08/22 04:07:53;;;;;;;15.95;9.40;;;;;;;-145.69;nan;51885.94;5114742;28;20205;-82
2023/08/22 04:10:21;;;;;;;13.65;8.80;;;;;;;-145.69;nan;51931.50;5114346;28;20200;-83
2023/08/22 04:12:48;;;;;;;18.52;9.85;;;;;;;-145.69;nan;51905.75;5114126;28;20251;-82
2023/08/22 04:15:15;;;;;;;17.20;9.52;;;;;;;-145.69;nan;51933.47;5114214;28;20627;-82
2023/08/22 04:17:42;;;;;;;12.90;9.48;;;;;;;-145.69;nan;51883.97;5114009;28;20252;-83
2023/08/22 04:20:09;;;;;;;12.07;8.43;;;;;;;-145.69;nan;51913.69;5114437;28;20201;-82
2023/08/22 04:22:36;;;;;;;12.60;8.40;;;;;;;-145.69;nan;51913.69;5114179;28;20605;-82
2023/08/22 04:25:04;;;;;;;15.93;8.95;;;;;;;-145.69;nan;51901.78;5113642;28;20193;-82
2023/08/22 04:27:30;;;;;;;12.73;7.85;;;;;;;-145.69;nan;51901.78;5114272;28;20288;-83
2023/08/22 04:29:59;;;;;;;12.85;7.90;;;;;;;-145.69;nan;51909.72;5129566;27;20203;-82
2023/08/22 04:32:25;;;;;;;15.77;8.40;;;;;;;-145.69;nan;51907.72;5134617;27;20224;-82
2023/08/22 04:34:52;;;;;;;11.98;7.88;;;;;;;-145.69;nan;51921.59;5118625;27;20197;-81
2023/08/22 04:37:19;;;;;;;15.18;9.27;;;;;;;-145.69;nan;51907.72;5113585;28;20193;-82
2023/08/22 04:39:45;;;;;;;16.55;9.75;;;;;;;-145.69;nan;51911.69;5113882;28;20193;-82
2023/08/22 04:42:12;;;;;;;16.38;8.02;;;;;;;-145.69;nan;51897.84;5113693;28;20652;-82
2023/08/22 04:44:38;;;;;;;12.77;8.90;;;;;;;-145.69;nan;51907.72;5114008;28;20560;-82
2023/08/22 04:47:06;;;;;;;14.02;8.82;;;;;;;-145.69;nan;51927.53;5113262;28;20200;-82
2023/08/22 04:49:33;;;;;;;16.20;9.40;;;;;;;-145.69;nan;51891.88;5113845;28;20726;-82
2023/08/22 04:51:59;;;;;;;12.32;8.73;;;;;;;-145.69;nan;51907.72;5113486;28;20205;-82
2023/08/22 04:54:26;;;;;;;18.60;9.88;;;;;;;-145.69;nan;51895.84;5113760;28;20209;-82
2023/08/22 04:56:53;;;;;;;13.05;8.32;;;;;;;-145.69;nan;51893.88;5112818;28;20216;-82
2023/08/22 04:59:19;;;;;;;13.85;8.35;;;;;;;-145.69;nan;51911.69;5113719;28;20200;-82
2023/08/22 05:01:46;;;;;;;13.57;7.75;;;;;;;-145.69;nan;51905.75;5113755;28;20209;-81
2023/08/22 05:04:13;;;;;;;11.93;7.93;;;;;;;-145.69;nan;51905.75;5113227;28;20208;-82
2023/08/22 05:06:40;;;;;;;12.95;8.15;;;;;;;-145.69;nan;51905.75;5113674;28;20224;-82
2023/08/22 05:09:08;;;;;;;12.35;7.75;;;;;;;-145.69;nan;51872.09;5113466;28;20595;-83
2023/08/22 05:11:34;;;;;;;10.57;8.05;;;;;;;-145.69;nan;51927.53;5113734;28;20543;-82
2023/08/22 05:14:01;;;;;;;14.73;9.25;;;;;;;-145.69;nan;51905.75;5113141;28;20267;-83
2023/08/22 05:16:27;;;;;;;18.88;9.95;;;;;;;-145.69;nan;51903.78;5113281;28;20198;-82
2023/08/22 05:18:54;;;;;;;15.77;9.40;;;;;;;-145.69;nan;51937.44;5113109;28;20197;-83
2023/08/22 05:21:22;;;;;;;12.40;9.10;;;;;;;-145.69;nan;51895.84;5113328;28;20203;-82
2023/08/22 05:23:48;;;;;;;16.95;9.18;;;;;;;-145.69;nan;51907.72;5113246;28;20644;-82
2023/08/22 05:26:15;;;;;;;11.25;8.15;;;;;;;-145.69;nan;51882.00;5112848;28;20274;-82
2023/08/22 05:28:41;;;;;;;14.48;7.97;;;;;;;-145.69;nan;51905.75;5096093;28;20675;-82
2023/08/22 05:31:08;;;;;;;13.20;8.32;;;;;;;-145.69;nan;51882.00;5112631;28;20587;-82
2023/08/22 05:33:34;;;;;;;14.07;9.15;;;;;;;-145.69;nan;51872.09;5113250;28;20228;-83
2023/08/22 05:36:01;;;;;;;15.60;8.93;;;;;;;-145.69;nan;51874.06;5113569;28;20198;-83
2023/08/22 05:38:29;;;;;;;13.32;8.85;;;;;;;-145.69;nan;51903.78;5113233;28;20204;-82
2023/08/22 05:40:55;;;;;;;13.60;9.10;;;;;;;-145.69;nan;51901.78;5112775;28;20208;-82
2023/08/22 05:43:22;;;;;;;14.02;9.90;;;;;;;-145.69;nan;51856.25;5113102;28;20201;-82
2023/08/22 05:45:48;;;;;;;14.98;8.75;;;;;;;-145.69;nan;51882.00;5113055;28;20193;-83
2023/08/22 05:48:14;;;;;;;11.57;8.05;;;;;;;-145.69;nan;51885.94;5113078;28;20197;-82
2023/08/22 05:50:41;;;;;;;11.88;8.90;;;;;;;-145.69;nan;51885.94;5113281;28;20201;-81
2023/08/22 05:53:07;;;;;;;13.25;8.32;;;;;;;-145.69;nan;51866.16;5104666;28;20222;-83
2023/08/22 05:55:35;;;;;;;12.38;8.23;;;;;;;-145.69;nan;51874.06;5111352;28;20212;-83
2023/08/22 05:58:02;;;;;;;17.08;8.57;;;;;;;-145.69;nan;51866.16;5112340;28;20220;-83
2023/08/22 06:00:28;;;;;;;14.38;8.98;;;;;;;-145.69;nan;51870.13;5116636;28;20190;-83
2023/08/22 06:02:54;;;;;;;10.18;8.05;;;;;;;-145.69;nan;51834.47;5117304;28;20197;-82
2023/08/22 06:05:23;;;;;;;11.52;7.80;;;;;;;-145.69;nan;51882.00;5117257;28;20208;-82
2023/08/22 06:07:49;;;;;;;10.85;7.97;;;;;;;-145.69;nan;51860.22;5116396;28;20198;-82
2023/08/22 06:10:16;;;;;;;14.18;8.50;;;;;;;-145.69;nan;51858.22;5116869;28;20205;-83
2023/08/22 06:12:43;;;;;;;13.85;8.25;;;;;;;-145.69;nan;51868.13;5116766;28;20225;-83
2023/08/22 06:15:10;;;;;;;14.80;8.70;;;;;;;-145.69;nan;51846.34;5116652;28;20225;-83
2023/08/22 06:17:37;;;;;;;12.80;8.02;;;;;;;-145.69;nan;51874.06;5116584;28;20635;-83
2023/08/22 06:20:05;;;;;;;9.82;7.68;;;;;;;-145.69;nan;51874.06;5116964;28;20201;-83
2023/08/22 06:22:31;;;;;;;12.50;7.18;;;;;;;-145.69;nan;51860.22;5116919;28;20201;-83
2023/08/22 06:24:57;;;;;;;10.75;7.55;;;;;;;-145.69;nan;51878.03;5116829;28;20193;-82
2023/08/22 06:27:24;;;;;;;11.52;8.18;;;;;;;-145.69;nan;51862.19;5117759;28;20197;-83
2023/08/22 06:29:52;;;;;;;10.57;7.47;;;;;;;-145.69;nan;51874.06;5116786;28;20219;-83
2023/08/22 06:32:21;;;;;;;11.23;7.43;;;;;;;-145.69;nan;51874.06;5121680;27;20201;-83
2023/08/22 06:34:47;;;;;;;16.67;8.55;;;;;;;-145.69;nan;51848.34;5123746;27;20256;-82
2023/08/22 06:37:14;;;;;;;10.38;7.63;;;;;;;-145.69;nan;51834.47;5116101;28;20205;-83
2023/08/22 06:39:40;;;;;;;12.77;7.57;;;;;;;-145.69;nan;51834.47;5116743;28;20198;-83
2023/08/22 06:42:07;;;;;;;10.98;7.68;;;;;;;-145.69;nan;51824.56;5116429;28;20196;-83
2023/08/22 06:44:34;;;;;;;11.85;6.60;;;;;;;-145.69;nan;51834.47;5116447;28;20563;-83
2023/08/22 06:47:03;;;;;;;12.20;7.75;;;;;;;-145.69;nan;51854.28;5116610;28;20198;-83
2023/08/22 06:49:30;;;;;;;12.80;7.50;;;;;;;-145.69;nan;51836.44;5116550;28;20201;-83
2023/08/22 06:51:56;;;;;;;11.00;7.22;;;;;;;-145.69;nan;51858.22;5116236;28;20568;-83
2023/08/22 06:54:23;;;;;;;8.85;7.00;;;;;;;-145.69;nan;51844.38;5115813;28;20232;-83
2023/08/22 06:56:50;;;;;;;11.07;7.22;;;;;;;-145.69;nan;51810.72;5115973;28;20190;-83
2023/08/22 06:59:17;;;;;;;11.43;7.72;;;;;;;-145.69;nan;51836.44;5115808;28;20585;-83
2023/08/22 07:01:43;;;;;;;9.65;6.88;;;;;;;-145.69;nan;51808.72;5115649;28;20204;-83
2023/08/22 07:04:11;;;;;;;10.82;7.07;;;;;;;-145.69;nan;51820.59;5115713;28;20201;-83
2023/08/22 07:06:38;;;;;;;10.88;6.68;;;;;;;-145.69;nan;51834.47;5115977;28;20198;-83
2023/08/22 07:09:04;;;;;;;9.77;6.78;;;;;;;-145.69;nan;51802.78;5115854;28;20194;-82
2023/08/22 07:11:31;;;;;;;9.02;6.78;;;;;;;-145.69;nan;51792.88;5115282;28;20203;-83
2023/08/22 07:13:57;;;;;;;9.38;6.95;;;;;;;-145.69;nan;51808.72;5115468;28;20710;-83
2023/08/22 07:16:24;;;;;;;11.77;6.78;;;;;;;-145.69;nan;51810.72;5115898;28;20209;-83
2023/08/22 07:18:50;;;;;;;10.90;6.85;;;;;;;-145.69;nan;51786.94;5115662;28;20208;-83
2023/08/22 07:21:18;;;;;;;8.73;6.75;;;;;;;-145.69;nan;51794.88;5115320;28;20193;-83
2023/08/22 07:23:45;;;;;;;9.55;6.93;;;;;;;-145.69;nan;51786.94;5115234;28;20212;-83
2023/08/22 07:26:11;;;;;;;12.60;7.25;;;;;;;-145.69;nan;51798.81;5115318;28;20202;-83
2023/08/22 07:28:38;;;;;;;8.73;6.32;;;;;;;-145.69;nan;51798.81;5115302;28;20201;-83
2023/08/22 07:31:04;;;;;;;12.15;6.75;;;;;;;-145.69;nan;51794.88;5115038;28;20280;-83
2023/08/22 07:33:31;;;;;;;11.68;6.43;;;;;;;-145.69;nan;51816.66;5113392;28;20218;-83
2023/08/22 07:35:58;;;;;;;9.05;6.72;;;;;;;-145.69;nan;51779.03;5115319;28;20197;-83
2023/08/22 07:38:27;;;;;;;9.02;6.70;;;;;;;-145.69;nan;51786.94;5115116;28;20201;-83
2023/08/22 07:40:53;;;;;;;12.20;6.32;;;;;;;-145.69;nan;51794.88;5114768;28;20197;-83
2023/08/22 07:43:20;;;;;;;11.80;6.38;;;;;;;-145.69;nan;51783.00;5114957;28;20284;-83
2023/08/22 07:45:46;;;;;;;8.90;6.32;;;;;;;-145.69;nan;51784.97;5114819;28;20193;-83
2023/08/22 07:48:13;;;;;;;8.77;6.63;;;;;;;-145.69;nan;51790.91;5115048;28;20197;-83
2023/08/22 07:50:39;;;;;;;10.00;6.35;;;;;;;-145.69;nan;51771.09;5110864;28;20697;-83
2023/08/22 07:53:06;;;;;;;11.07;6.80;;;;;;;-145.69;nan;51788.94;5114550;28;20197;-83
2023/08/22 07:55:34;;;;;;;13.50;6.57;;;;;;;-145.69;nan;51763.19;5114617;28;20221;-83
2023/08/22 07:58:01;;;;;;;8.93;6.47;;;;;;;-145.69;nan;51753.28;5114864;28;20198;-83
2023/08/22 08:00:27;;;;;;;10.10;6.07;;;;;;;-145.69;nan;51779.03;5114550;28;20213;-82
2023/08/22 08:02:54;;;;;;;10.38;6.55;;;;;;;-145.69;nan;51775.06;5114803;28;20204;-83
2023/08/22 08:05:21;;;;;;;42.60;12.63;;;;;;;-145.69;nan;51765.16;5114523;28;20200;-82
2023/08/22 08:07:47;;;;;;;35.17;12.00;;;;;;;-145.69;nan;51773.09;5101892;28;20557;-83
2023/08/22 08:10:14;;;;;;;13.10;7.10;;;;;;;-145.69;nan;51717.66;5094571;28;20206;-83
2023/08/22 08:12:42;;;;;;;12.90;7.22;;;;;;;-145.69;nan;51779.03;5102404;28;20204;-83
2023/08/22 08:15:09;;;;;;;27.48;9.40;;;;;;;-145.69;nan;51763.19;5113558;28;20225;-83
2023/08/22 08:17:35;;;;;;;15.48;7.35;;;;;;;-145.69;nan;51751.31;5114274;28;20197;-83
2023/08/22 08:20:04;;;;;;;29.35;10.27;;;;;;;-145.69;nan;51763.19;5114602;28;20204;-83
2023/08/22 08:22:30;;;;;;;19.38;9.73;;;;;;;-145.69;nan;51737.44;5113167;28;20202;-83
2023/08/22 08:24:57;;;;;;;15.20;7.47;;;;;;;-145.69;nan;51743.38;5114101;28;20205;-81
2023/08/22 08:27:24;;;;;;;12.93;6.53;;;;;;;-145.69;nan;51771.09;5114065;28;20647;-82
2023/08/22 08:29:52;;;;;;;9.98;6.32;;;;;;;-145.69;nan;51743.38;5114012;28;20587;-82
2023/08/22 08:32:18;;;;;;;10.02;6.07;;;;;;;-145.69;nan;51771.09;5125727;27;20714;-82
2023/08/22 08:34:45;;;;;;;11.93;6.32;;;;;;;-145.69;nan;51781.00;5114261;27;20587;-83
2023/08/22 08:37:13;;;;;;;8.40;5.30;;;;;;;-145.69;nan;51749.31;5112220;28;20202;-82
2023/08/22 08:39:41;;;;;;;8.23;5.63;;;;;;;-145.69;nan;51759.22;5111902;28;20755;-83
2023/08/22 08:42:12;;;;;;;9.82;5.88;;;;;;;-145.69;nan;51739.44;5111879;28;20194;-83
2023/08/22 08:44:39;;;;;;;8.93;5.70;;;;;;;-145.69;nan;51745.38;5111997;28;20208;-83
2023/08/22 08:47:09;;;;;;;12.90;6.00;;;;;;;-145.69;nan;51733.50;5111741;28;20250;-83
2023/08/22 08:49:35;;;;;;;9.32;5.32;;;;;;;-145.69;nan;51745.38;5112492;28;20230;-83
2023/08/22 08:52:03;;;;;;;10.75;5.50;;;;;;;-145.69;nan;51723.59;5112972;28;20664;-83
2023/08/22 08:54:30;;;;;;;8.48;5.57;;;;;;;-145.69;nan;51731.50;5113437;28;20321;-83
2023/08/22 08:56:56;;;;;;;6.65;4.68;;;;;;;-145.69;nan;51743.38;5113120;28;20576;-83
2023/08/22 08:59:23;;;;;;;6.05;4.90;;;;;;;-145.69;nan;51713.69;5113441;28;20195;-82
2023/08/22 09:01:51;;;;;;;8.75;4.70;;;;;;;-145.69;nan;51721.59;5113515;28;20656;-83
2023/08/22 09:04:19;;;;;;;7.55;3.85;;;;;;;-145.69;nan;51741.41;5113415;28;20559;-83
2023/08/22 09:06:46;;;;;;;5.15;3.75;;;;;;;-145.69;nan;51743.38;5113087;28;20555;-83
2023/08/22 09:09:14;;;;;;;5.97;3.88;;;;;;;-145.69;nan;51719.63;5113184;28;20193;-83
2023/08/22 09:11:42;;;;;;;5.25;3.20;;;;;;;-145.69;nan;51731.50;5113655;28;20302;-84
2023/08/22 09:14:09;;;;;;;6.57;3.35;;;;;;;-145.69;nan;51731.50;5113151;28;20683;-83
2023/08/22 09:16:36;;;;;;;7.45;3.80;;;;;;;-145.69;nan;51727.53;5113320;28;20568;-83
2023/08/22 09:19:03;;;;;;;7.97;3.70;;;;;;;-145.69;nan;51727.53;5113295;28;20629;-82
2023/08/22 09:21:32;;;;;;;5.53;3.40;;;;;;;-145.69;nan;51693.88;5113284;28;20202;-82
2023/08/22 09:24:07;;;;;;;5.97;3.60;;;;;;;-145.69;nan;51733.50;5113083;28;20212;-83
2023/08/22 09:26:33;;;;;;;6.45;4.03;;;;;;;-145.69;nan;51697.84;5093180;28;20201;-82
2023/08/22 09:29:04;;;;;;;5.65;3.22;;;;;;;-145.69;nan;51695.88;5093150;28;20202;-83
2023/08/22 09:31:32;;;;;;;6.95;3.40;;;;;;;-145.69;nan;51743.38;5094300;28;20210;-81
2023/08/22 09:33:59;;;;;;;4.68;2.92;;;;;;;-145.69;nan;51711.72;5102773;28;20221;-81
2023/08/22 09:36:25;;;;;;;5.43;2.50;;;;;;;-145.69;nan;51703.78;5117052;28;20597;-83
2023/08/22 09:38:55;;;;;;;6.53;2.80;;;;;;;-145.69;nan;51701.81;5117420;28;20197;-83
2023/08/22 09:41:23;;;;;;;4.15;3.20;;;;;;;-145.69;nan;51699.81;5117484;28;20201;-83
2023/08/22 09:43:54;;;;;;;4.45;2.97;;;;;;;-145.69;nan;51731.50;5117252;28;20197;-83
2023/08/22 09:46:21;;;;;;;6.28;3.03;;;;;;;-145.69;nan;51683.97;5113128;28;20636;-83
2023/08/22 09:48:50;;;;;;;9.55;3.20;;;;;;;-145.69;nan;51697.84;5117098;28;20212;-83
2023/08/22 09:51:20;;;;;;;4.28;2.75;;;;;;;-145.69;nan;51695.88;5117246;28;20205;-83
2023/08/22 09:53:50;;;;;;;5.53;2.78;;;;;;;-145.69;nan;51723.59;5117598;28;20246;-83
2023/08/22 09:56:19;;;;;;;7.60;3.10;;;;;;;-145.69;nan;51691.91;5117507;28;20545;-84
2023/08/22 09:58:46;;;;;;;6.47;3.10;;;;;;;-145.69;nan;51705.75;5116938;28;20200;-83
2023/08/22 10:01:14;;;;;;;6.28;3.30;;;;;;;-145.69;nan;51697.84;5116887;28;20205;-82
2023/08/22 10:03:41;;;;;;;9.30;3.55;;;;;;;-145.69;nan;51703.78;5117207;28;20556;-84
2023/08/22 10:06:13;;;;;;;7.13;3.67;;;;;;;-145.69;nan;51699.81;5116162;28;20207;-83
2023/08/22 10:08:40;;;;;;;5.32;3.50;;;;;;;-145.69;nan;51670.13;5116572;28;20194;-83
2023/08/22 10:11:08;;;;;;;5.82;3.40;;;;;;;-145.69;nan;51678.03;5116141;28;20201;-83
2023/08/22 10:13:38;;;;;;;4.93;3.03;;;;;;;-145.69;nan;51680.03;5115611;28;20225;-83
2023/08/22 10:16:05;;;;;;;6.45;2.78;;;;;;;-145.69;nan;51707.75;5116896;28;20206;-83
2023/08/22 10:18:32;;;;;;;7.80;2.83;;;;;;;-145.69;nan;51697.84;5116458;28;20197;-82
2023/08/22 10:20:59;;;;;;;6.18;2.67;;;;;;;-145.69;nan;51691.91;5116779;28;20197;-83
2023/08/22 10:23:59;;;;;;;5.57;3.03;;;;;;;-145.69;nan;51695.88;5116275;28;20535;-83
2023/08/22 10:26:28;;;;;;;5.22;3.40;;;;;;;-145.69;nan;51701.81;5052392;28;20265;-82
2023/08/22 10:29:15;;;;;;;6.20;3.42;;;;;;;-145.69;nan;51687.94;5051830;28;20662;-82
2023/08/22 10:32:19;;;;;;;7.00;3.38;;;;;;;-145.69;nan;51664.19;5102503;27;20569;-83
2023/08/22 10:35:19;;;;;;;5.45;3.35;;;;;;;-145.69;nan;51680.03;5114642;28;20691;-83
2023/08/22 10:37:48;;;;;;;5.38;3.20;;;;;;;-145.69;nan;51683.97;5112217;28;20441;-83
2023/08/22 10:40:21;;;;;;;4.95;3.45;;;;;;;-145.69;nan;51689.94;5112719;28;20201;-82
2023/08/22 10:42:52;;;;;;;4.75;3.10;;;;;;;-145.69;nan;51668.16;5115701;28;20549;-81
2023/08/22 10:45:20;;;;;;;4.70;2.88;;;;;;;-145.69;nan;51699.81;5115526;28;20621;-82
2023/08/22 10:47:49;;;;;;;6.50;2.80;;;;;;;-145.69;nan;51664.19;5115510;28;20201;-82
2023/08/22 10:50:16;;;;;;;5.30;3.03;;;;;;;-145.69;nan;51672.09;5115377;28;20201;-82
2023/08/22 10:52:43;;;;;;;5.35;3.08;;;;;;;-145.69;nan;51689.94;5107425;28;20198;-82
2023/08/22 10:55:13;;;;;;;7.88;2.72;;;;;;;-145.69;nan;51680.03;5115934;28;20236;-83
2023/08/22 10:57:42;;;;;;;7.07;2.60;;;;;;;-145.69;nan;51683.97;5097839;28;20564;-82
2023/08/22 11:00:23;;;;;;;7.40;2.75;;;;;;;-145.69;nan;51678.03;5131876;27;20189;-81
2023/08/22 11:02:52;;;;;;;4.57;2.40;;;;;;;-145.69;nan;51676.06;5102095;28;20594;-82
2023/08/22 11:05:22;;;;;;;9.23;2.95;;;;;;;-145.69;nan;51705.75;5099803;28;20201;-83
2023/08/22 11:07:50;;;;;;;3.75;2.70;;;;;;;-145.69;nan;51660.22;5095007;28;20533;-82
2023/08/22 11:10:22;;;;;;;6.50;2.63;;;;;;;-145.69;nan;51683.97;5098438;28;20208;-82
2023/08/22 11:12:51;;;;;;;3.42;2.55;;;;;;;-145.69;nan;51640.44;5095445;28;20226;-84
2023/08/22 11:15:18;;;;;;;3.90;2.65;;;;;;;-145.69;nan;51664.19;5092277;28;20237;-83
2023/08/22 11:17:48;;;;;;;4.80;2.85;;;;;;;-145.69;nan;51664.19;5094391;28;20229;-83
2023/08/22 11:20:16;;;;;;;4.57;2.40;;;;;;;-145.69;nan;51648.34;5094918;28;20260;-83
2023/08/22 11:22:44;;;;;;;3.22;2.53;;;;;;;-145.69;nan;51640.44;5101791;28;20194;-84
2023/08/22 11:25:12;;;;;;;5.90;2.78;;;;;;;-145.69;nan;51660.22;5096733;28;20232;-83
2023/08/22 11:27:39;;;;;;;4.97;2.38;;;;;;;-145.69;nan;51660.22;5115312;28;20666;-83
2023/08/22 11:30:08;;;;;;;5.97;2.83;;;;;;;-145.69;nan;51689.94;5115205;28;20659;-84